Terminal Aerodrome Forecast
Issued by NWS Blacksburg, VA

Current Version | Previous Version | Text Only | Print | Product List | Glossary Off
Versions: 1 2 3 4 5 6 7 8 9 10 11 12 13 14 15 16 17 18

000
FTUS41 KRNK 172355
TAFBLF
TAF
KBLF 172355Z 1800/1824 25005KT P6SM VCSH BKN035 BKN200
     FM180200 24004KT P6SM BKN080 BKN200
     FM180800 24004KT P6SM VCSH OVC015
      TEMPO 1810/1814 1 1/2SM SHRA BR OVC004
     FM181500 26007KT P6SM VCTS BKN030CB
     FM182000 27008G16KT P6SM OVC035=

USA.gov is the U.S. government's official web portal to all federal, state and local government web resources and services.